createdAt,value
2019-02-18T00:01:54.304Z,21.85
2019-02-18T00:04:24.127Z,23.42
2019-02-18T00:06:53.937Z,24.52
2019-02-18T00:09:23.750Z,25.00
2019-02-18T00:11:53.550Z,20.32
2019-02-18T00:14:23.354Z,21.80
2019-02-18T00:16:53.175Z,21.80
2019-02-18T00:19:22.932Z,25.37
2019-02-18T00:21:52.746Z,25.27
2019-02-18T00:24:23.351Z,20.43
2019-02-18T00:26:53.119Z,22.95
2019-02-18T00:29:22.894Z,23.00
2019-02-18T00:31:52.661Z,19.07
2019-02-18T00:34:23.237Z,19.12
2019-02-18T00:36:52.971Z,20.10
2019-02-18T00:39:23.069Z,21.70
2019-02-18T00:41:52.949Z,20.32
2019-02-18T00:44:23.650Z,21.97
2019-02-18T00:46:53.733Z,21.25
2019-02-18T00:49:26.037Z,22.62
2019-02-18T00:51:56.135Z,26.87
2019-02-18T00:54:25.974Z,21.82
2019-02-18T00:56:56.004Z,21.50
2019-02-18T00:59:25.916Z,27.82
2019-02-18T01:01:55.720Z,24.57
2019-02-18T01:04:25.501Z,21.68
2019-02-18T01:06:55.706Z,26.47
2019-02-18T01:09:25.587Z,24.63
2019-02-18T01:11:55.360Z,23.90
2019-02-18T01:14:26.156Z,32.42
2019-02-18T01:16:55.997Z,24.65
2019-02-18T01:19:25.796Z,24.37
2019-02-18T01:21:55.503Z,22.73
2019-02-18T01:24:25.334Z,22.83
2019-02-18T01:26:55.145Z,22.13
2019-02-18T01:29:25.165Z,21.35
2019-02-18T01:31:54.993Z,22.07
2019-02-18T01:34:24.754Z,26.62
2019-02-18T01:36:54.520Z,23.70
2019-02-18T01:39:24.277Z,20.27
2019-02-18T01:41:53.993Z,22.43
2019-02-18T01:44:23.725Z,21.60
2019-02-18T01:46:53.435Z,22.25
2019-02-18T01:49:23.191Z,21.42
2019-02-18T01:51:54.596Z,19.43
2019-02-18T01:54:24.342Z,20.12
2019-02-18T01:56:55.020Z,19.85
2019-02-18T01:59:24.917Z,21.40
2019-02-18T02:01:54.695Z,25.40
2019-02-18T02:04:24.499Z,22.85
2019-02-18T02:06:54.266Z,24.72
2019-02-18T02:09:24.125Z,25.12
2019-02-18T02:11:53.935Z,23.02
2019-02-18T02:14:23.824Z,21.57
2019-02-18T02:16:53.523Z,26.42
2019-02-18T02:19:23.376Z,22.52
2019-02-18T02:21:53.190Z,20.53
2019-02-18T02:24:23.257Z,18.15
2019-02-18T02:26:52.976Z,19.73
2019-02-18T02:29:22.812Z,22.13
2019-02-18T02:31:52.879Z,23.03
2019-02-18T02:34:23.811Z,24.70
2019-02-18T02:36:53.785Z,22.07
2019-02-18T02:39:23.906Z,22.80
2019-02-18T02:41:53.685Z,24.60
2019-02-18T02:44:23.846Z,22.87
2019-02-18T02:46:53.602Z,21.43
2019-02-18T02:49:23.308Z,29.07
2019-02-18T02:51:53.098Z,26.50
2019-02-18T02:54:22.870Z,24.83
2019-02-18T02:56:52.884Z,25.72
2019-02-18T02:59:22.608Z,22.83
2019-02-18T03:01:52.802Z,22.20
2019-02-18T03:04:22.655Z,21.97
2019-02-18T03:06:52.409Z,24.83
2019-02-18T03:09:22.162Z,26.90
2019-02-18T03:11:51.912Z,25.30
2019-02-18T03:14:21.642Z,23.23
2019-02-18T03:16:51.423Z,23.30
2019-02-18T03:19:21.080Z,20.77
2019-02-18T03:21:50.793Z,23.47
2019-02-18T03:24:23.033Z,22.87
2019-02-18T03:26:52.852Z,27.43
2019-02-18T03:29:26.771Z,24.37
2019-02-18T03:31:56.560Z,24.73
2019-02-18T03:34:27.853Z,24.70
2019-02-18T03:36:58.536Z,23.63
2019-02-18T03:39:28.504Z,24.23
2019-02-18T03:41:58.194Z,21.27
2019-02-18T03:44:28.079Z,20.77
2019-02-18T03:46:57.912Z,20.73
2019-02-18T03:49:27.762Z,19.63
2019-02-18T03:51:57.550Z,19.57
2019-02-18T03:54:27.329Z,20.93
2019-02-18T03:56:57.064Z,20.57
2019-02-18T03:59:27.597Z,22.90
2019-02-18T04:01:57.326Z,22.00
2019-02-18T04:04:27.115Z,20.33
2019-02-18T04:06:56.897Z,23.37
2019-02-18T04:09:26.640Z,20.10
2019-02-18T04:11:56.368Z,21.77
2019-02-18T04:14:26.102Z,21.73
2019-02-18T04:16:55.967Z,24.40
2019-02-18T04:19:25.758Z,20.03
2019-02-18T04:21:55.542Z,25.70
2019-02-18T04:24:25.466Z,21.23
2019-02-18T04:26:55.350Z,20.67
2019-02-18T04:29:25.184Z,20.07
2019-02-18T04:31:54.991Z,23.77
2019-02-18T04:34:24.794Z,21.57
2019-02-18T04:36:55.604Z,26.30
2019-02-18T04:39:25.554Z,24.23
2019-02-18T04:41:55.261Z,24.67
2019-02-18T04:44:25.061Z,22.83
2019-02-18T04:46:54.880Z,22.07
2019-02-18T04:49:24.921Z,26.03
2019-02-18T04:51:54.642Z,22.40
2019-02-18T04:54:24.384Z,24.83
2019-02-18T04:56:54.310Z,20.73
2019-02-18T04:59:24.067Z,27.70
2019-02-18T05:01:53.857Z,21.47
2019-02-18T05:04:23.609Z,23.70
2019-02-18T05:06:53.320Z,25.90
2019-02-18T05:09:23.479Z,24.92
2019-02-18T05:11:53.886Z,26.60
2019-02-18T05:14:23.855Z,22.47
2019-02-18T05:16:53.800Z,26.83
2019-02-18T05:19:23.680Z,24.03
2019-02-18T05:21:53.763Z,23.73
2019-02-18T05:24:24.449Z,26.70
2019-02-18T05:26:55.462Z,23.60
2019-02-18T05:29:25.257Z,25.93
2019-02-18T05:31:55.051Z,28.17
2019-02-18T05:34:24.875Z,28.63
2019-02-18T05:36:54.654Z,26.03
2019-02-18T05:39:24.351Z,25.27
2019-02-18T05:41:54.153Z,27.27
2019-02-18T05:44:23.999Z,25.37
2019-02-18T05:46:53.818Z,28.07
2019-02-18T05:49:23.517Z,24.27
2019-02-18T05:51:53.299Z,24.10
2019-02-18T05:54:23.092Z,32.57
2019-02-18T05:56:52.977Z,28.57
2019-02-18T05:59:22.703Z,25.77
2019-02-18T06:01:52.359Z,23.60
2019-02-18T06:04:23.077Z,26.07
2019-02-18T06:06:53.257Z,23.50
2019-02-18T06:09:29.879Z,28.20
2019-02-18T06:11:54.867Z,27.60
2019-02-18T06:14:24.728Z,25.57
2019-02-18T06:16:54.637Z,25.97
2019-02-18T06:19:24.799Z,28.80
2019-02-18T06:21:54.641Z,26.77
2019-02-18T06:24:24.552Z,28.07
2019-02-18T06:26:54.359Z,24.50
2019-02-18T06:29:24.035Z,27.43
2019-02-18T06:31:53.972Z,27.10
2019-02-18T06:34:23.947Z,23.90
2019-02-18T06:36:54.051Z,26.33
2019-02-18T06:39:23.936Z,25.37
2019-02-18T06:41:53.752Z,25.47
2019-02-18T06:44:25.325Z,35.17
2019-02-18T06:46:56.756Z,27.43
2019-02-18T06:49:26.574Z,26.83
2019-02-18T06:51:56.391Z,28.27
2019-02-18T06:54:26.311Z,29.40
2019-02-18T06:57:01.629Z,29.10
2019-02-18T06:59:33.090Z,30.60
2019-02-18T07:02:13.400Z,30.60
2019-02-18T07:04:45.027Z,27.33
2019-02-18T07:07:16.476Z,30.53
2019-02-18T07:09:51.221Z,27.43
2019-02-18T07:12:23.990Z,28.53
2019-02-18T07:14:53.792Z,30.40
2019-02-18T07:17:23.485Z,25.60
2019-02-18T07:19:53.421Z,25.93
2019-02-18T07:22:23.284Z,26.83
2019-02-18T07:24:52.997Z,28.90
2019-02-18T07:27:22.825Z,25.17
2019-02-18T07:29:54.553Z,26.63
2019-02-18T07:32:24.579Z,26.73
2019-02-18T07:34:54.361Z,28.43
2019-02-18T07:37:24.045Z,30.00
2019-02-18T07:40:01.146Z,28.43
2019-02-18T07:42:25.342Z,31.23
2019-02-18T07:44:55.502Z,31.10
2019-02-18T07:47:26.264Z,32.53
2019-02-18T07:49:55.977Z,32.00
2019-02-18T07:52:25.713Z,27.00
2019-02-18T07:54:55.418Z,34.90
2019-02-18T07:57:25.196Z,34.73
2019-02-18T07:59:55.029Z,31.57
2019-02-18T08:02:25.585Z,37.03
2019-02-18T08:04:55.419Z,33.87
2019-02-18T08:07:25.236Z,35.73
2019-02-18T08:09:55.022Z,36.73
2019-02-18T08:12:24.882Z,38.90
2019-02-18T08:14:54.809Z,36.93
2019-02-18T08:17:25.641Z,38.53
2019-02-18T08:19:57.066Z,37.33
2019-02-18T08:22:26.988Z,46.17
2019-02-18T08:24:56.750Z,45.13
2019-02-18T08:27:26.461Z,43.67
2019-02-18T08:29:56.139Z,39.50
2019-02-18T08:32:27.071Z,45.47
2019-02-18T08:34:57.206Z,46.00
2019-02-18T08:37:26.991Z,47.07
2019-02-18T08:39:56.643Z,46.07
2019-02-18T08:42:26.769Z,50.90
2019-02-18T08:44:57.301Z,52.57
2019-02-18T08:47:27.086Z,43.63
2019-02-18T08:49:57.157Z,40.57
2019-02-18T08:52:26.942Z,50.10
2019-02-18T08:54:57.052Z,48.07
2019-02-18T08:57:27.381Z,38.70
2019-02-18T08:59:57.140Z,41.70
2019-02-18T09:02:26.984Z,42.57
2019-02-18T09:04:57.404Z,42.23
2019-02-18T09:07:27.111Z,48.37
2019-02-18T09:09:56.970Z,42.30
2019-02-18T09:12:26.914Z,45.37
2019-02-18T09:14:56.714Z,52.27
2019-02-18T09:17:26.432Z,43.67
2019-02-18T09:19:56.225Z,41.97
2019-02-18T09:22:36.414Z,44.13
2019-02-18T09:25:18.534Z,43.73
2019-02-18T09:27:50.693Z,42.60
2019-02-18T09:30:22.155Z,41.23
2019-02-18T09:32:51.856Z,46.57
2019-02-18T09:35:21.635Z,48.13
2019-02-18T09:37:51.445Z,42.77
2019-02-18T09:40:21.217Z,48.20
2019-02-18T09:42:51.057Z,46.63
2019-02-18T09:45:20.879Z,46.80
2019-02-18T09:47:50.654Z,45.80
2019-02-18T09:50:20.709Z,42.70
2019-02-18T09:52:50.491Z,41.27
2019-02-18T09:55:21.144Z,44.38
2019-02-18T09:57:51.074Z,45.40
2019-02-18T10:00:20.852Z,47.48
2019-02-18T10:02:50.590Z,42.88
2019-02-18T10:05:21.004Z,42.70
2019-02-18T10:07:51.082Z,46.77
2019-02-18T10:10:20.906Z,43.85
2019-02-18T10:12:50.755Z,46.67
2019-02-18T10:15:21.604Z,39.65
2019-02-18T10:17:51.312Z,42.90
2019-02-18T10:20:22.439Z,43.23
2019-02-18T10:22:52.190Z,41.23
2019-02-18T10:25:22.362Z,39.23
2019-02-18T10:27:52.160Z,39.83
2019-02-18T10:30:22.007Z,39.73
2019-02-18T10:32:51.748Z,41.65
2019-02-18T10:35:21.550Z,46.02
2019-02-18T10:37:54.981Z,41.58
2019-02-18T10:40:24.911Z,41.83
2019-02-18T10:42:54.621Z,43.60
2019-02-18T10:45:24.390Z,42.25
2019-02-18T10:47:54.232Z,41.25
2019-02-18T10:50:24.663Z,43.68
2019-02-18T10:52:54.619Z,44.25
2019-02-18T10:55:25.208Z,42.27
2019-02-18T10:57:54.998Z,41.40
2019-02-18T11:00:24.786Z,36.85
2019-02-18T11:02:54.990Z,35.38
2019-02-18T11:05:25.033Z,39.65
2019-02-18T11:07:55.615Z,35.30
2019-02-18T11:10:25.672Z,33.78
2019-02-18T11:12:55.495Z,35.80
2019-02-18T11:15:25.494Z,32.80
2019-02-18T11:17:55.318Z,27.48
2019-02-18T11:20:25.102Z,27.98
2019-02-18T11:22:55.099Z,26.50
2019-02-18T11:25:24.818Z,33.60
2019-02-18T11:27:54.685Z,25.95
2019-02-18T11:30:24.577Z,31.95
2019-02-18T11:32:54.764Z,35.30
2019-02-18T11:35:24.554Z,38.42
2019-02-18T11:37:54.390Z,28.67
2019-02-18T11:40:24.785Z,24.92
2019-02-18T11:42:55.085Z,22.55
2019-02-18T11:45:24.967Z,33.78
2019-02-18T11:47:56.053Z,27.13
2019-02-18T11:50:25.842Z,30.20
2019-02-18T11:52:55.643Z,25.95
2019-02-18T11:55:26.351Z,25.77
2019-02-18T11:57:56.165Z,28.70
2019-02-18T12:00:25.896Z,31.60
2019-02-18T12:03:03.613Z,34.48
2019-02-18T12:05:29.807Z,34.00
2019-02-18T12:07:59.988Z,31.17
2019-02-18T12:10:29.786Z,28.95
2019-02-18T12:12:59.632Z,27.85
2019-02-18T12:15:29.423Z,35.52
2019-02-18T12:17:59.500Z,31.50
2019-02-18T12:20:29.313Z,30.00
2019-02-18T12:22:59.065Z,28.10
2019-02-18T12:25:28.822Z,26.87
2019-02-18T12:27:58.778Z,26.82
2019-02-18T12:30:29.429Z,28.83
2019-02-18T12:32:59.192Z,32.13
2019-02-18T12:35:31.433Z,30.77
2019-02-18T12:38:02.493Z,29.18
2019-02-18T12:40:32.618Z,32.88
2019-02-18T12:43:02.476Z,30.97
2019-02-18T12:45:33.105Z,29.20
2019-02-18T12:48:03.156Z,28.15
2019-02-18T12:50:33.282Z,28.62
2019-02-18T12:53:04.720Z,29.80
2019-02-18T12:55:34.707Z,26.70
2019-02-18T12:58:05.308Z,30.10
2019-02-18T13:00:36.536Z,27.70
2019-02-18T13:03:06.604Z,26.73
2019-02-18T13:05:38.870Z,29.48
2019-02-18T13:08:08.680Z,30.52
2019-02-18T13:10:38.824Z,28.95
2019-02-18T13:13:08.750Z,34.13
2019-02-18T13:15:39.078Z,31.50
2019-02-18T13:18:09.366Z,29.42
2019-02-18T13:20:39.369Z,30.50
2019-02-18T13:23:10.525Z,27.62
2019-02-18T13:25:47.341Z,27.98
2019-02-18T13:28:13.365Z,30.82
2019-02-18T13:30:43.126Z,26.82
2019-02-18T13:33:12.900Z,27.90
2019-02-18T13:35:42.655Z,30.77
2019-02-18T13:38:14.305Z,26.27
2019-02-18T13:40:44.132Z,26.27
2019-02-18T13:43:13.925Z,29.27
2019-02-18T13:45:43.767Z,25.97
2019-02-18T13:48:13.473Z,31.55
2019-02-18T13:50:43.449Z,31.73
2019-02-18T13:53:13.407Z,33.58
2019-02-18T13:55:43.220Z,34.65
2019-02-18T13:58:13.129Z,40.92
2019-02-18T14:00:43.050Z,42.33
2019-02-18T14:03:12.954Z,39.85
2019-02-18T14:05:43.601Z,39.55
2019-02-18T14:08:13.471Z,31.25
2019-02-18T14:10:43.185Z,30.72
2019-02-18T14:13:13.284Z,30.92
2019-02-18T14:15:43.084Z,32.40
2019-02-18T14:18:13.132Z,31.95
2019-02-18T14:20:43.639Z,31.90
2019-02-18T14:23:15.857Z,32.63
2019-02-18T14:25:45.862Z,31.60
2019-02-18T14:28:15.634Z,34.55
2019-02-18T14:30:45.416Z,31.62
2019-02-18T14:33:16.996Z,32.03
2019-02-18T14:35:46.944Z,29.12
2019-02-18T14:38:17.663Z,33.95
2019-02-18T14:40:47.575Z,37.53
2019-02-18T14:43:17.510Z,30.45
2019-02-18T14:45:48.285Z,34.40
2019-02-18T14:48:18.221Z,38.00
2019-02-18T14:50:56.744Z,34.95
2019-02-18T14:53:24.264Z,30.72
2019-02-18T14:55:54.094Z,33.63
2019-02-18T14:58:23.876Z,35.15
2019-02-18T15:00:54.713Z,35.55
2019-02-18T15:03:24.557Z,35.43
2019-02-18T15:05:54.461Z,29.27
2019-02-18T15:08:24.262Z,30.32
2019-02-18T15:10:55.474Z,30.02
2019-02-18T15:13:26.010Z,83.72
2019-02-18T15:15:55.819Z,73.00
2019-02-18T15:18:25.914Z,78.60
2019-02-18T15:20:56.362Z,89.50
2019-02-18T15:23:26.355Z,105.70
2019-02-18T15:25:56.128Z,80.70
2019-02-18T15:28:26.590Z,68.95
2019-02-18T15:30:56.504Z,65.75
2019-02-18T15:33:26.301Z,54.18
2019-02-18T15:35:56.136Z,52.70
2019-02-18T15:38:28.316Z,37.95
2019-02-18T15:40:58.237Z,28.17
2019-02-18T15:43:28.081Z,27.22
2019-02-18T15:45:58.155Z,28.42
2019-02-18T15:48:27.996Z,29.72
2019-02-18T15:50:58.175Z,29.30
2019-02-18T15:53:28.908Z,26.00
2019-02-18T15:55:59.438Z,29.15
2019-02-18T15:58:29.256Z,34.10
2019-02-18T16:00:59.376Z,29.35
2019-02-18T16:03:29.778Z,30.17
2019-02-18T16:05:59.627Z,29.67
2019-02-18T16:08:29.342Z,29.77
2019-02-18T16:13:40.744Z,27.20
2019-02-18T16:16:10.691Z,29.42
2019-02-18T16:18:41.077Z,27.93
2019-02-18T16:21:11.529Z,26.65
2019-02-18T16:23:41.336Z,27.25
2019-02-18T16:26:11.192Z,25.48
2019-02-18T16:28:42.605Z,28.27
2019-02-18T16:31:13.308Z,27.60
2019-02-18T16:33:43.153Z,29.02
2019-02-18T16:36:13.060Z,25.02
2019-02-18T16:38:42.961Z,28.17
2019-02-18T16:41:12.811Z,23.67
2019-02-18T16:43:42.875Z,23.80
2019-02-18T16:46:12.581Z,24.67
2019-02-18T16:48:43.393Z,21.75
2019-02-18T16:51:13.536Z,23.32
2019-02-18T16:53:43.976Z,30.35
2019-02-18T16:56:14.610Z,22.17
2019-02-18T16:58:44.401Z,21.68
2019-02-18T17:01:14.341Z,26.73
2019-02-18T17:03:45.355Z,29.37
2019-02-18T17:06:15.568Z,25.55
2019-02-18T17:08:45.482Z,109.50
2019-02-18T17:11:15.920Z,81.22
2019-02-18T17:13:45.845Z,40.10
2019-02-18T17:16:16.571Z,33.10
2019-02-18T17:18:48.424Z,24.32
2019-02-18T17:21:18.394Z,29.12
2019-02-18T17:23:48.256Z,26.65
2019-02-18T17:26:18.436Z,28.32
2019-02-18T17:28:49.378Z,25.82
2019-02-18T17:31:19.323Z,23.25
2019-02-18T17:33:50.064Z,21.52
2019-02-18T17:36:20.058Z,24.05
2019-02-18T17:38:49.978Z,26.05
2019-02-18T17:41:19.920Z,26.23
2019-02-18T17:43:50.299Z,26.93
2019-02-18T17:46:20.255Z,24.98
2019-02-18T17:48:50.572Z,25.12
2019-02-18T17:51:20.421Z,26.87
2019-02-18T17:53:50.620Z,22.75
2019-02-18T17:56:20.820Z,24.72
2019-02-18T17:58:52.248Z,31.93
2019-02-18T18:01:22.964Z,22.87
2019-02-18T18:03:52.972Z,23.35
2019-02-18T18:06:22.838Z,25.92
2019-02-18T18:08:53.922Z,22.98
2019-02-18T18:11:23.940Z,22.75
2019-02-18T18:13:53.848Z,28.52
2019-02-18T18:16:23.745Z,27.55
2019-02-18T18:18:53.666Z,27.80
2019-02-18T18:21:24.868Z,24.47
2019-02-18T18:23:54.954Z,24.52
2019-02-18T18:26:25.650Z,27.87
2019-02-18T18:28:55.888Z,28.57
2019-02-18T18:31:26.091Z,27.87
2019-02-18T18:33:55.925Z,26.40
2019-02-18T18:36:26.936Z,29.00
2019-02-18T18:38:57.110Z,28.70
2019-02-18T18:41:27.077Z,26.02
2019-02-18T18:43:56.917Z,26.90
2019-02-18T18:46:28.253Z,24.82
2019-02-18T18:48:58.033Z,25.80
2019-02-18T18:51:28.202Z,27.65
2019-02-18T18:53:58.204Z,28.07
2019-02-18T18:56:28.365Z,27.52
2019-02-18T18:58:58.629Z,31.85
2019-02-18T19:01:28.665Z,26.93
2019-02-18T19:03:58.983Z,25.43
2019-02-18T19:06:29.082Z,30.08
2019-02-18T19:08:59.498Z,23.83
2019-02-18T19:11:30.242Z,22.98
2019-02-18T19:14:00.985Z,23.35
2019-02-18T19:16:30.947Z,23.00
2019-02-18T19:19:02.834Z,23.90
2019-02-18T19:21:34.114Z,28.75
2019-02-18T19:24:04.538Z,23.35
2019-02-18T19:26:34.974Z,26.42
2019-02-18T19:29:05.187Z,24.45
2019-02-18T19:31:35.145Z,24.65
2019-02-18T19:34:05.429Z,24.15
2019-02-18T19:36:35.250Z,24.05
2019-02-18T19:39:06.354Z,22.27
2019-02-18T19:41:36.655Z,21.42
2019-02-18T19:44:07.828Z,22.75
2019-02-18T19:46:38.277Z,23.20
2019-02-18T19:49:08.433Z,20.80
2019-02-18T19:51:38.517Z,22.82
2019-02-18T19:54:09.299Z,22.27
2019-02-18T19:56:39.094Z,25.00
2019-02-18T19:59:10.938Z,23.07
2019-02-18T20:01:41.201Z,28.17
2019-02-18T20:04:11.336Z,22.62
2019-02-18T20:06:41.764Z,26.45
2019-02-18T20:09:13.180Z,22.07
2019-02-18T20:11:44.125Z,22.48
2019-02-18T20:14:14.022Z,24.52
2019-02-18T20:16:44.070Z,20.65
2019-02-18T20:19:14.357Z,24.85
2019-02-18T20:21:44.179Z,26.02
2019-02-18T20:24:14.330Z,20.62
2019-02-18T20:26:44.623Z,24.30
2019-02-18T20:29:16.117Z,22.98
2019-02-18T20:31:45.949Z,22.05
2019-02-18T20:34:15.816Z,23.80
2019-02-18T20:36:47.415Z,23.92
2019-02-18T20:39:17.438Z,25.72
2019-02-18T20:41:47.385Z,23.12
2019-02-18T20:44:17.503Z,28.10
2019-02-18T20:46:47.312Z,25.25
2019-02-18T20:49:17.121Z,24.47
2019-02-18T20:51:48.085Z,27.35
2019-02-18T20:54:18.110Z,28.27
2019-02-18T20:56:48.329Z,27.75
2019-02-18T20:59:19.026Z,26.35
2019-02-18T21:01:49.180Z,32.23
2019-02-18T21:04:18.961Z,29.75
2019-02-18T21:06:50.084Z,40.05
2019-02-18T21:09:20.010Z,25.95
2019-02-18T21:11:50.108Z,29.82
2019-02-18T21:14:20.384Z,28.80
2019-02-18T21:16:51.189Z,29.37
2019-02-18T21:19:22.013Z,27.65
2019-02-18T21:21:51.894Z,29.12
2019-02-18T21:24:22.732Z,26.35
2019-02-18T21:26:52.807Z,28.57
2019-02-18T21:29:22.723Z,30.85
2019-02-18T21:31:53.632Z,28.60
2019-02-18T21:34:25.083Z,30.40
2019-02-18T21:36:54.850Z,37.00
2019-02-18T21:39:24.841Z,28.83
2019-02-18T21:41:56.275Z,28.83
2019-02-18T21:44:26.989Z,27.98
2019-02-18T21:46:57.449Z,30.77
2019-02-18T21:49:30.836Z,34.48
2019-02-18T21:52:03.256Z,32.30
2019-02-18T21:54:34.098Z,33.20
2019-02-18T21:57:03.928Z,29.82
2019-02-18T21:59:34.785Z,31.45
2019-02-18T22:02:05.706Z,30.15
2019-02-18T22:04:35.598Z,27.95
2019-02-18T22:07:05.438Z,33.98
2019-02-18T22:09:35.392Z,30.60
2019-02-18T22:12:05.184Z,34.55
2019-02-18T22:14:35.760Z,33.98
2019-02-18T22:17:07.182Z,30.88
2019-02-18T22:19:37.047Z,29.30
2019-02-18T22:22:08.531Z,32.05
2019-02-18T22:24:38.631Z,27.62
2019-02-18T22:27:09.494Z,28.98
2019-02-18T22:29:39.712Z,35.63
2019-02-18T22:32:09.507Z,30.50
2019-02-18T22:34:39.360Z,32.95
2019-02-18T22:37:11.637Z,30.65
2019-02-18T22:39:41.723Z,32.33
2019-02-18T22:42:12.815Z,29.92
2019-02-18T22:44:43.250Z,32.65
2019-02-18T22:47:12.965Z,33.13
2019-02-18T22:49:42.992Z,30.27
2019-02-18T22:52:13.812Z,33.65
2019-02-18T22:54:43.778Z,34.18
2019-02-18T22:57:14.703Z,34.83
2019-02-18T22:59:44.679Z,31.42
2019-02-18T23:02:15.365Z,32.70
2019-02-18T23:04:45.371Z,32.60
2019-02-18T23:07:15.343Z,33.90
2019-02-18T23:09:45.384Z,33.05
2019-02-18T23:12:15.107Z,30.57
2019-02-18T23:14:50.333Z,31.27
2019-02-18T23:17:16.621Z,32.03
2019-02-18T23:19:46.478Z,34.30
2019-02-18T23:22:16.261Z,33.98
2019-02-18T23:24:48.343Z,32.13
2019-02-18T23:27:18.204Z,30.65
2019-02-18T23:29:47.944Z,29.25
2019-02-18T23:32:17.652Z,31.57
2019-02-18T23:34:47.449Z,37.05
2019-02-18T23:37:17.304Z,34.92
2019-02-18T23:39:49.097Z,36.68
2019-02-18T23:42:19.694Z,30.90
2019-02-18T23:44:49.422Z,34.35
2019-02-18T23:47:19.331Z,34.13
2019-02-18T23:49:49.223Z,35.13
2019-02-18T23:52:18.960Z,46.02
2019-02-18T23:54:49.032Z,38.10
2019-02-18T23:57:18.905Z,31.02
2019-02-18T23:59:48.637Z,34.00
